Time;durP1;ratioP1;P1;durP2;ratioP2;P2;SDS_P1;SDS_P2;PMS_P1;PMS_P2;Temp;Humidity;BMP_temperature;BMP_pressure;BME280_temperature;BME280_humidity;BME280_pressure;Samples;Min_cycle;Max_cycle;Signal;HPM_P1;HPM_P2
2023/10/03 00:00:44;;;;;;;51.28;26.10;;;20.90;99.90;;;21.24;89.51;100798.53;5050530;28;20091;-74
2023/10/03 00:03:13;;;;;;;51.70;24.85;;;20.90;99.90;;;21.27;88.70;100793.00;5051573;28;20049;-74
2023/10/03 00:05:45;;;;;;;50.85;25.77;;;21.00;99.90;;;21.35;88.32;100798.03;5052111;28;20076;-74
2023/10/03 00:08:15;;;;;;;49.35;24.23;;;21.00;99.90;;;21.39;87.94;100787.00;5051656;28;20041;-74
2023/10/03 00:10:45;;;;;;;48.08;23.83;;;21.10;99.90;;;21.51;87.31;100790.91;5054972;28;20072;-75
2023/10/03 00:13:17;;;;;;;48.15;24.10;;;21.20;99.90;;;21.52;86.75;100768.44;5055579;28;20063;-74
2023/10/03 00:15:45;;;;;;;49.92;24.52;;;21.20;99.90;;;21.67;86.16;100783.78;5055014;28;20156;-74
2023/10/03 00:18:14;;;;;;;48.70;24.67;;;21.30;99.90;;;21.79;85.46;100769.69;5050533;28;20045;-74
2023/10/03 00:20:44;;;;;;;50.08;24.48;;;21.40;99.90;;;21.88;84.88;100773.75;5050052;28;20045;-74
2023/10/03 00:23:14;;;;;;;48.25;24.10;;;21.50;99.90;;;21.88;84.88;100757.59;5054869;28;20037;-74
2023/10/03 00:25:42;;;;;;;48.77;23.90;;;21.60;99.90;;;22.03;84.33;100760.34;5054871;28;20037;-75
2023/10/03 00:28:12;;;;;;;48.35;24.75;;;21.60;99.90;;;22.09;83.75;100756.44;5054763;28;20045;-73
2023/10/03 00:30:40;;;;;;;52.08;24.80;;;21.70;99.90;;;22.11;83.35;100747.34;5055339;28;20049;-74
2023/10/03 00:33:12;;;;;;;46.67;23.95;;;21.80;99.90;;;22.15;82.98;100759.69;5038873;28;20095;-74
2023/10/03 00:35:42;;;;;;;51.15;25.10;;;21.80;99.90;;;22.21;82.55;100745.91;5055055;28;20427;-74
2023/10/03 00:38:13;;;;;;;48.23;23.73;;;21.80;99.90;;;22.15;82.47;100748.94;5054437;28;20049;-74
2023/10/03 00:40:50;;;;;;;50.05;23.70;;;21.80;99.90;;;22.12;82.38;100714.06;5053793;28;20493;-74
2023/10/03 00:43:19;;;;;;;55.97;25.83;;;21.90;99.90;;;22.22;82.29;100727.91;5049276;28;20064;-74
2023/10/03 00:45:49;;;;;;;47.33;23.40;;;21.80;99.90;;;22.21;82.64;100726.16;5044843;28;20068;-74
2023/10/03 00:48:20;;;;;;;47.83;24.15;;;21.80;99.90;;;21.65;82.33;100621.44;5049191;28;20558;-74
2023/10/03 00:50:49;;;;;;;47.45;23.83;;;21.90;99.90;;;22.18;82.57;100716.41;5053491;28;20139;-74
2023/10/03 00:53:18;;;;;;;49.38;23.10;;;21.80;99.90;;;22.12;82.69;100697.03;5052443;28;20051;-74
2023/10/03 00:55:48;;;;;;;44.58;23.52;;;21.80;99.90;;;22.16;82.45;100710.22;5066064;28;20055;-73
2023/10/03 00:58:28;;;;;;;45.67;22.88;;;21.80;99.90;;;22.26;82.19;100700.69;5069523;28;20139;-74
2023/10/03 01:00:57;;;;;;;44.63;22.23;;;21.90;99.90;;;22.22;81.89;100687.50;5039723;28;20052;-73
2023/10/03 01:03:30;;;;;;;46.85;22.85;;;21.90;99.90;;;22.16;82.45;100694.06;5053798;28;20052;-75
2023/10/03 01:06:05;;;;;;;47.20;23.67;;;21.80;99.90;;;22.22;82.14;100693.72;5053721;28;20049;-74
2023/10/03 01:08:36;;;;;;;44.83;22.90;;;21.90;99.90;;;22.06;82.53;100659.63;5053993;28;20466;-74
2023/10/03 01:11:13;;;;;;;47.60;23.23;;;21.80;99.90;;;22.14;82.46;100671.72;5053582;28;20094;-74
2023/10/03 01:13:42;;;;;;;47.63;23.17;;;21.80;99.90;;;22.23;82.38;100682.00;5054106;28;20037;-74
2023/10/03 01:16:12;;;;;;;45.83;23.15;;;21.80;99.90;;;22.25;82.28;100682.78;5054060;28;20088;-74
2023/10/03 01:18:42;;;;;;;46.42;23.08;;;21.90;99.90;;;22.31;81.96;100695.94;5049270;28;20053;-74
2023/10/03 01:21:11;;;;;;;43.05;22.23;;;21.90;99.90;;;22.33;82.04;100688.63;5042482;28;20053;-74
2023/10/03 01:23:42;;;;;;;41.10;22.02;;;21.90;99.90;;;21.58;82.19;100551.88;5049250;28;20041;-74
2023/10/03 01:26:13;;;;;;;41.10;20.17;;;21.90;99.90;;;22.35;82.08;100688.53;5050689;28;20040;-74
2023/10/03 01:28:42;;;;;;;47.63;22.65;;;21.90;99.90;;;22.29;82.21;100668.19;5053849;28;20041;-74
2023/10/03 01:31:10;;;;;;;43.83;22.05;;;22.00;99.90;;;22.39;81.90;100685.59;5053675;28;20048;-74
2023/10/03 01:33:40;;;;;;;47.65;22.17;;;22.00;99.90;;;22.38;81.79;100693.75;5053628;28;20049;-73
2023/10/03 01:36:09;;;;;;;44.53;22.42;;;22.00;99.90;;;22.39;81.96;100677.50;5052036;28;20081;-74
2023/10/03 01:38:37;;;;;;;42.33;21.77;;;22.00;99.90;;;22.42;81.95;100684.53;5053180;28;20114;-74
2023/10/03 01:41:07;;;;;;;46.97;22.70;;;22.00;99.90;;;22.44;81.84;100685.31;5053317;28;20071;-74
2023/10/03 01:43:38;;;;;;;45.03;22.80;;;22.00;99.90;;;22.45;82.13;100687.94;5053491;28;20053;-74
2023/10/03 01:46:07;;;;;;;44.25;20.73;;;22.00;99.90;;;22.44;82.17;100671.84;5036017;28;20083;-74
2023/10/03 01:48:36;;;;;;;44.72;22.45;;;22.10;99.90;;;22.43;82.49;100670.97;5048110;28;20037;-74
2023/10/03 01:51:06;;;;;;;50.67;21.15;;;22.00;99.90;;;22.37;82.72;100663.25;5044438;28;20059;-73
2023/10/03 01:53:35;;;;;;;47.20;20.85;;;22.00;99.90;;;22.32;83.04;100657.22;5048704;28;20145;-73
2023/10/03 01:56:05;;;;;;;50.17;20.67;;;22.00;99.90;;;22.34;83.28;100641.84;5048060;28;20045;-74
2023/10/03 01:58:35;;;;;;;;;;;22.00;99.90;;;22.40;83.88;100649.59;5041018;28;20045;-74
2023/10/03 02:01:04;;;;;;;49.13;21.20;;;22.00;99.90;;;22.35;83.96;100646.28;5051259;28;19940;-74
2023/10/03 02:03:35;;;;;;;39.25;19.88;;;21.90;99.90;;;22.32;84.38;100649.16;5052274;28;20053;-74
2023/10/03 02:06:06;;;;;;;39.53;19.90;;;21.90;99.90;;;22.37;84.26;100639.00;5052682;28;20071;-74
2023/10/03 02:08:34;;;;;;;40.53;19.55;;;21.90;99.90;;;22.41;84.31;100640.53;5048167;28;20140;-73
2023/10/03 02:11:06;;;;;;;36.55;19.80;;;22.00;99.90;;;22.47;84.21;100631.25;5047822;28;20037;-74
2023/10/03 02:13:38;;;;;;;38.17;20.42;;;22.00;99.90;;;22.22;84.67;100591.31;5050913;28;20081;-74
2023/10/03 02:16:07;;;;;;;43.58;20.30;;;22.00;99.90;;;22.39;84.87;100620.03;5050944;28;20399;-73
2023/10/03 02:18:36;;;;;;;40.92;20.13;;;22.00;99.90;;;22.42;85.07;100618.03;5067625;28;20440;-74
2023/10/03 02:21:05;;;;;;;39.58;19.42;;;22.00;99.90;;;22.36;85.60;100612.97;5052242;28;20490;-74
2023/10/03 02:23:34;;;;;;;39.65;18.95;;;21.90;99.90;;;22.35;85.95;100622.03;5036818;28;20049;-73
2023/10/03 02:26:09;;;;;;;35.40;17.48;;;21.90;99.90;;;22.32;86.33;100627.59;5052439;28;20051;-73
2023/10/03 02:28:40;;;;;;;44.78;16.60;;;21.90;99.90;;;22.39;86.63;100625.41;5052557;28;20052;-73
2023/10/03 02:31:10;;;;;;;37.42;15.35;;;21.90;99.90;;;22.14;86.83;100593.56;5052341;28;20041;-73
2023/10/03 02:33:43;;;;;;;39.25;14.65;;;21.90;99.90;;;22.21;87.01;100618.38;5052094;28;20064;-74
2023/10/03 02:36:14;;;;;;;28.75;14.45;;;21.90;99.90;;;22.26;86.66;100646.78;5051187;28;20057;-74
2023/10/03 02:38:43;;;;;;;27.10;13.48;;;21.90;99.90;;;22.20;86.43;100639.03;5052424;28;20064;-73
2023/10/03 02:41:13;;;;;;;28.90;12.70;;;21.80;99.90;;;22.24;86.32;100647.84;5052596;28;20053;-74
2023/10/03 02:43:46;;;;;;;31.58;13.40;;;21.80;99.90;;;22.21;86.37;100658.78;5052986;28;20037;-73
2023/10/03 02:46:26;;;;;;;27.00;11.45;;;21.80;99.90;;;22.04;86.36;100648.06;5048140;28;20148;-74
2023/10/03 02:48:55;;;;;;;22.90;10.43;;;21.70;99.90;;;21.99;87.19;100650.16;5051214;28;20041;-74
2023/10/03 02:51:24;;;;;;;23.20;9.95;;;21.60;99.90;;;21.95;87.77;100664.75;5051376;28;20045;-73
2023/10/03 02:53:53;;;;;;;27.10;10.10;;;21.50;99.90;;;21.92;88.23;100657.69;5051714;28;20053;-74
2023/10/03 02:56:22;;;;;;;26.77;11.40;;;21.50;99.90;;;21.92;88.39;100657.69;5052928;28;20095;-74
2023/10/03 02:58:52;;;;;;;28.52;10.25;;;21.50;99.90;;;21.82;89.08;100658.25;5050220;28;20088;-73
2023/10/03 03:01:21;;;;;;;28.73;10.63;;;21.40;99.90;;;21.73;89.97;100667.69;5047813;28;20061;-74
2023/10/03 03:03:51;;;;;;;29.38;10.63;;;21.30;99.90;;;21.60;92.09;100657.66;5041913;28;20057;-72
2023/10/03 03:06:22;;;;;;;36.42;11.80;;;21.20;99.90;;;21.47;94.07;100658.28;5050699;28;20045;-75
2023/10/03 03:08:52;;;;;;;42.63;12.55;;;21.10;99.90;;;21.34;94.70;100635.66;5050826;28;20049;-74
2023/10/03 03:11:21;;;;;;;40.08;12.10;;;21.10;99.90;;;21.50;95.20;100663.50;5050743;28;20072;-73
2023/10/03 03:13:50;;;;;;;37.20;11.23;;;21.00;99.90;;;20.97;95.64;100581.13;5051676;28;20057;-75
2023/10/03 03:16:20;;;;;;;39.05;12.27;;;21.00;99.90;;;21.26;96.00;100672.88;5051838;28;20049;-74
2023/10/03 03:18:50;;;;;;;36.50;11.15;;;21.00;99.90;;;21.27;96.52;100673.75;5051305;28;20234;-74
2023/10/03 03:21:20;;;;;;;35.80;11.90;;;20.90;99.90;;;21.14;96.98;100681.56;5051602;28;20107;-74
2023/10/03 03:23:57;;;;;;;32.97;11.48;;;20.80;99.90;;;21.09;97.12;100674.66;5051712;28;20045;-74
2023/10/03 03:26:36;;;;;;;32.90;11.25;;;20.70;99.90;;;21.09;97.21;100655.84;5051742;28;20088;-72
2023/10/03 03:29:20;;;;;;;34.10;10.93;;;20.70;99.90;;;21.06;97.67;100673.00;5051630;28;20487;-74
2023/10/03 03:31:50;;;;;;;37.38;11.07;;;20.60;99.90;;;20.98;98.03;100660.88;5051933;28;20151;-74
2023/10/03 03:34:20;;;;;;;35.58;11.32;;;20.60;99.90;;;20.98;98.41;100674.31;5051544;28;20124;-75
2023/10/03 03:36:54;;;;;;;38.70;10.93;;;20.60;99.90;;;20.99;98.48;100676.94;5052157;28;20486;-74
2023/10/03 03:39:26;;;;;;;33.67;11.70;;;20.60;99.90;;;21.03;98.52;100670.47;5051949;28;20060;-74
2023/10/03 03:41:55;;;;;;;40.38;10.90;;;20.60;99.90;;;20.93;98.86;100679.91;5052182;28;20051;-73
2023/10/03 03:44:25;;;;;;;40.63;12.68;;;20.50;99.90;;;20.89;99.21;100677.44;5052048;28;20045;-74
2023/10/03 03:46:55;;;;;;;33.33;11.43;;;20.50;99.90;;;20.87;99.19;100673.97;5055787;28;20060;-74
2023/10/03 03:49:25;;;;;;;32.70;11.18;;;20.50;99.90;;;20.87;98.93;100666.78;5055439;28;20053;-73
2023/10/03 03:51:54;;;;;;;30.83;11.60;;;20.50;99.90;;;20.93;98.80;100665.59;5055426;28;20127;-74
2023/10/03 03:54:22;;;;;;;28.98;11.13;;;20.50;99.90;;;20.96;98.61;100654.69;5055032;28;20037;-74
2023/10/03 03:56:50;;;;;;;32.75;10.68;;;20.50;99.90;;;20.85;98.47;100647.16;5055191;28;20123;-74
2023/10/03 03:59:19;;;;;;;29.95;10.90;;;20.50;99.90;;;20.78;98.66;100661.88;5055419;28;20462;-74
2023/10/03 04:01:49;;;;;;;26.38;10.40;;;20.40;99.90;;;20.80;98.70;100662.66;5055104;28;20124;-75
2023/10/03 04:04:20;;;;;;;30.17;10.35;;;20.40;99.90;;;20.75;98.84;100659.31;5053928;28;20506;-74
2023/10/03 04:06:48;;;;;;;29.20;10.18;;;20.30;99.90;;;20.72;98.35;100670.22;5055390;28;20081;-74
2023/10/03 04:09:19;;;;;;;30.00;11.55;;;20.30;99.90;;;20.64;98.15;100670.59;5053949;28;20052;-75
2023/10/03 04:11:48;;;;;;;30.13;10.15;;;20.30;99.90;;;20.66;98.26;100660.66;5055190;28;20131;-74
2023/10/03 04:14:17;;;;;;;25.73;10.95;;;20.30;99.90;;;20.76;97.84;100665.56;5054911;28;20099;-74
2023/10/03 04:16:45;;;;;;;24.25;10.93;;;20.30;99.90;;;20.78;97.09;100669.94;5054244;28;20128;-74
2023/10/03 04:19:13;;;;;;;30.95;9.80;;;20.40;99.90;;;20.77;96.92;100672.69;5054362;28;20103;-74
2023/10/03 04:21:44;;;;;;;29.48;9.93;;;20.40;99.90;;;20.66;96.49;100659.78;5054605;28;20071;-74
2023/10/03 04:24:15;;;;;;;24.85;9.65;;;20.30;99.90;;;20.63;96.38;100687.66;5053703;28;20048;-74
2023/10/03 04:26:43;;;;;;;26.63;9.07;;;20.20;99.90;;;20.66;96.21;100676.78;5053556;28;20084;-74
2023/10/03 04:29:14;;;;;;;21.33;9.05;;;20.20;99.90;;;20.74;95.74;100683.59;5052940;28;20076;-75
2023/10/03 04:31:46;;;;;;;20.13;7.90;;;20.30;99.90;;;20.64;94.92;100672.41;5038463;28;20132;-74
2023/10/03 04:34:19;;;;;;;23.75;8.32;;;20.30;99.90;;;20.59;94.94;100653.84;5054269;28;20099;-74
2023/10/03 04:36:50;;;;;;;23.52;7.72;;;20.20;99.90;;;20.61;94.83;100668.03;5054176;28;20073;-74
2023/10/03 04:39:20;;;;;;;24.45;8.27;;;20.20;99.90;;;20.66;94.58;100670.53;5054188;28;20041;-74
2023/10/03 04:41:48;;;;;;;15.93;7.35;;;20.20;99.90;;;20.66;94.64;100671.41;5054119;28;20053;-74
2023/10/03 04:44:17;;;;;;;17.88;7.68;;;20.30;99.90;;;20.59;94.72;100680.72;5054233;28;20390;-73
2023/10/03 04:46:46;;;;;;;17.95;7.28;;;20.20;99.90;;;20.59;94.77;100674.47;5054591;28;20560;-74
2023/10/03 04:49:16;;;;;;;18.85;7.18;;;20.20;99.90;;;20.50;95.12;100691.00;5054142;28;20048;-74
2023/10/03 04:51:46;;;;;;;24.38;8.35;;;20.10;99.90;;;20.57;95.05;100698.75;5054249;28;20051;-73
2023/10/03 04:54:17;;;;;;;22.58;7.68;;;20.20;99.90;;;20.60;95.32;100690.50;5053825;28;20040;-75
2023/10/03 04:56:48;;;;;;;21.30;7.90;;;20.20;99.90;;;20.57;95.29;100709.50;5054363;28;20455;-74
2023/10/03 04:59:21;;;;;;;20.48;7.97;;;20.20;99.90;;;20.57;95.33;100709.50;5038666;28;20041;-74
2023/10/03 05:01:49;;;;;;;18.52;8.43;;;20.20;99.90;;;20.61;95.39;100704.84;5052980;28;20059;-74
2023/10/03 05:04:18;;;;;;;24.00;8.10;;;20.20;99.90;;;20.54;95.65;100693.50;5054338;28;20057;-72
2023/10/03 05:06:49;;;;;;;20.55;8.68;;;20.20;99.90;;;20.58;95.68;100708.53;5053865;28;20059;-74
2023/10/03 05:09:19;;;;;;;;;;;20.20;99.90;;;20.71;95.47;100710.63;5053273;28;20052;-74
2023/10/03 05:11:50;;;;;;;26.35;8.75;;;20.30;99.90;;;20.64;95.61;100710.03;5053807;28;19950;-74
2023/10/03 05:14:18;;;;;;;24.85;8.20;;;20.30;99.90;;;20.67;95.75;100716.13;5053959;28;20053;-74
2023/10/03 05:16:50;;;;;;;21.25;8.20;;;20.30;99.90;;;20.66;95.21;100706.34;5053804;28;20459;-74
2023/10/03 05:19:19;;;;;;;18.98;7.78;;;20.30;99.90;;;20.64;94.99;100704.66;5052792;28;20052;-72
2023/10/03 05:21:48;;;;;;;24.35;8.85;;;20.30;99.90;;;20.62;94.85;100695.81;5054046;28;20041;-74
2023/10/03 05:24:16;;;;;;;17.88;6.70;;;20.20;99.90;;;20.59;94.57;100710.28;5053707;28;20068;-75
2023/10/03 05:26:46;;;;;;;18.35;7.07;;;20.20;99.90;;;20.64;94.83;100718.09;5052717;28;20541;-72
2023/10/03 05:29:16;;;;;;;17.85;7.53;;;20.20;99.90;;;20.19;95.13;100642.41;5053860;28;20049;-74
2023/10/03 05:31:45;;;;;;;16.52;6.97;;;20.20;99.90;;;20.71;95.43;100741.09;5053038;28;20791;-74
2023/10/03 05:34:15;;;;;;;22.15;6.88;;;20.30;99.90;;;20.75;94.90;100752.56;5053672;28;20071;-74
2023/10/03 05:36:44;;;;;;;16.98;6.78;;;20.40;99.90;;;20.81;94.66;100761.19;5037501;28;20406;-74
2023/10/03 05:39:15;;;;;;;14.20;6.32;;;20.40;99.90;;;20.84;93.92;100750.28;5053556;28;20464;-75
2023/10/03 05:41:48;;;;;;;17.33;5.65;;;20.40;99.90;;;20.63;92.38;100738.72;5053163;28;20070;-74
2023/10/03 05:44:18;;;;;;;12.85;5.28;;;20.30;99.90;;;20.63;91.99;100771.00;5053378;28;20048;-74
2023/10/03 05:46:52;;;;;;;14.90;5.35;;;20.30;99.90;;;20.68;91.57;100768.97;5053722;28;20471;-74
2023/10/03 05:49:22;;;;;;;18.48;6.07;;;20.30;99.90;;;20.52;90.96;100765.25;5053333;28;20558;-73
2023/10/03 05:51:55;;;;;;;15.30;5.13;;;20.20;99.90;;;20.52;90.54;100754.50;5053199;28;20072;-74
2023/10/03 05:54:25;;;;;;;13.45;5.20;;;20.10;99.90;;;20.43;90.00;100737.94;5053088;28;20045;-75
2023/10/03 05:56:56;;;;;;;17.25;5.03;;;20.20;99.90;;;20.63;89.77;100771.00;5052614;28;20048;-75
2023/10/03 05:59:26;;;;;;;;;;;20.20;99.90;;;20.74;89.29;100773.19;5053128;28;20037;-75
2023/10/03 06:01:57;;;;;;;12.18;4.80;;;20.40;99.90;;;20.70;89.21;100787.72;5053121;28;19952;-76
2023/10/03 06:04:25;;;;;;;16.42;5.20;;;20.30;99.90;;;20.67;88.97;100795.94;5053455;28;20144;-75
2023/10/03 06:06:55;;;;;;;10.48;4.60;;;20.30;99.90;;;20.75;88.48;100776.75;5052791;28;20041;-75
2023/10/03 06:09:26;;;;;;;15.70;5.47;;;20.40;99.90;;;20.74;88.43;100789.31;5053393;28;20068;-75
2023/10/03 06:11:56;;;;;;;13.75;5.45;;;20.40;99.90;;;20.77;88.69;100807.97;5052805;28;20429;-75
2023/10/03 06:14:25;;;;;;;11.75;4.80;;;20.40;99.90;;;20.86;88.79;100812.06;5053036;28;20063;-76
2023/10/03 06:16:53;;;;;;;9.45;5.05;;;20.40;99.90;;;20.79;89.47;100824.91;5053205;28;20451;-75
2023/10/03 06:19:22;;;;;;;10.65;5.35;;;20.40;99.90;;;20.78;89.85;100836.63;5051433;28;20079;-76
2023/10/03 06:21:50;;;;;;;13.13;5.13;;;20.40;99.90;;;20.76;90.52;100843.00;5052680;28;20041;-75
2023/10/03 06:24:19;;;;;;;14.60;5.30;;;20.40;99.90;;;20.73;90.81;100843.16;5053167;28;20076;-75
2023/10/03 06:26:48;;;;;;;16.48;4.90;;;20.40;99.90;;;20.52;93.09;100842.31;5052497;28;20069;-75
2023/10/03 06:29:17;;;;;;;11.73;4.75;;;20.20;99.90;;;20.45;94.32;100839.06;5052691;28;20079;-75
2023/10/03 06:31:46;;;;;;;16.03;5.07;;;20.10;99.90;;;20.49;95.34;100842.47;5052456;28;20057;-75
2023/10/03 06:34:16;;;;;;;11.45;4.78;;;20.10;99.90;;;20.31;97.19;100841.50;5052538;28;20435;-74
2023/10/03 06:36:44;;;;;;;13.90;4.97;;;20.00;99.90;;;20.35;97.87;100844.91;5051204;28;20550;-74
2023/10/03 06:39:13;;;;;;;14.68;5.28;;;20.00;99.90;;;20.10;99.23;100852.28;5052305;28;20072;-75
2023/10/03 06:41:42;;;;;;;12.25;4.68;;;19.80;99.90;;;20.06;100.00;100854.22;5051151;28;20045;-75
2023/10/03 06:44:11;;;;;;;12.05;4.47;;;19.70;99.90;;;19.76;100.00;100858.22;5051066;28;20049;-75
2023/10/03 06:46:42;;;;;;;13.48;5.10;;;19.50;99.90;;;19.44;100.00;100864.91;5052262;28;20053;-80
2023/10/03 06:49:11;;;;;;;11.82;4.68;;;19.20;99.90;;;19.28;100.00;100879.84;5052500;28;20048;-77
2023/10/03 06:51:40;;;;;;;13.15;4.63;;;18.90;99.90;;;19.12;100.00;100905.53;5050468;28;20056;-78
2023/10/03 06:54:09;;;;;;;13.32;4.50;;;18.80;99.90;;;18.67;100.00;100905.47;5051620;28;20048;-81
2023/10/03 06:56:37;;;;;;;10.60;4.30;;;18.50;99.90;;;18.54;100.00;100903.31;5051579;28;20041;-84
2023/10/03 06:59:08;;;;;;;11.45;4.28;;;18.20;99.90;;;18.48;100.00;100916.91;5051688;28;20045;-79
2023/10/03 07:01:36;;;;;;;;;;;18.20;99.90;;;18.34;100.00;100929.88;5052897;28;20048;-82
2023/10/03 07:04:07;;;;;;;7.78;3.95;;;18.10;99.90;;;18.37;100.00;100932.47;5051929;28;19920;-80
2023/10/03 07:06:36;;;;;;;8.27;3.88;;;18.00;99.90;;;18.18;100.00;100926.84;5052184;28;20114;-79
2023/10/03 07:09:08;;;;;;;9.43;3.78;;;17.90;99.90;;;18.18;100.00;100939.38;5052276;28;20490;-79
2023/10/03 07:11:36;;;;;;;12.02;4.03;;;17.80;99.90;;;18.28;100.00;100939.00;5051817;28;20527;-75
2023/10/03 07:14:05;;;;;;;12.40;3.80;;;17.90;99.90;;;18.23;100.00;100954.38;5052133;28;20041;-79
2023/10/03 07:16:41;;;;;;;11.63;4.55;;;17.80;99.90;;;18.20;100.00;100972.31;5051849;28;20057;-76
2023/10/03 07:19:12;;;;;;;11.70;4.05;;;17.90;99.90;;;18.32;100.00;100982.63;5054270;28;20120;-79
2023/10/03 07:21:40;;;;;;;9.45;3.70;;;17.90;99.90;;;18.22;100.00;100987.41;5056073;28;20041;-79
2023/10/03 07:24:09;;;;;;;11.02;4.00;;;17.90;99.90;;;18.12;100.00;100939.59;5056162;28;20045;-79
2023/10/03 07:26:37;;;;;;;9.23;3.83;;;18.00;99.90;;;18.33;100.00;100974.53;5055961;28;20037;-80
2023/10/03 07:29:06;;;;;;;13.50;4.22;;;18.00;99.90;;;18.34;100.00;100984.31;5056119;28;20502;-76
2023/10/03 07:31:34;;;;;;;11.38;4.07;;;18.00;99.90;;;18.30;100.00;100984.47;5055730;28;20071;-84
2023/10/03 07:34:04;;;;;;;14.40;3.92;;;18.00;99.90;;;18.24;100.00;100996.28;5055917;28;20041;-85
2023/10/03 07:36:33;;;;;;;15.68;4.50;;;17.90;99.90;;;18.33;100.00;100990.59;5054969;28;20048;-80
2023/10/03 07:39:03;;;;;;;11.75;4.07;;;18.00;99.90;;;18.30;100.00;100997.88;5054814;28;20045;-78
2023/10/03 07:41:33;;;;;;;6.90;3.75;;;18.00;99.90;;;18.21;100.00;101012.47;5056183;28;20448;-84
2023/10/03 07:44:02;;;;;;;8.77;4.10;;;17.90;99.90;;;18.11;100.00;101029.75;5055830;28;20055;-79
2023/10/03 07:46:31;;;;;;;9.75;3.35;;;17.80;99.90;;;18.15;100.00;101042.13;5055747;28;20099;-80
2023/10/03 07:49:02;;;;;;;8.70;3.38;;;17.80;99.90;;;18.05;100.00;101054.03;5054365;28;20053;-76
2023/10/03 07:51:31;;;;;;;8.93;3.45;;;17.80;99.90;;;18.02;100.00;101075.56;5055663;28;20091;-76
2023/10/03 07:54:02;;;;;;;7.85;3.38;;;17.70;99.90;;;17.97;100.00;101083.72;5055076;28;20358;-81
2023/10/03 07:56:32;;;;;;;8.98;3.33;;;17.60;99.90;;;17.94;100.00;101075.78;5055640;28;20064;-82
2023/10/03 07:59:02;;;;;;;11.02;3.45;;;17.60;99.90;;;17.81;100.00;101081.56;5057214;28;20045;-82
2023/10/03 08:01:38;;;;;;;6.70;3.00;;;17.50;99.90;;;17.80;100.00;101095.88;5055410;28;20499;-80
2023/10/03 08:04:31;;;;;;;6.25;2.97;;;17.50;99.90;;;17.70;100.00;101111.34;5055458;28;20160;-76
2023/10/03 08:07:00;;;;;;;7.30;2.97;;;17.40;99.90;;;17.66;100.00;101100.75;5055264;28;20044;-78
2023/10/03 08:09:31;;;;;;;6.25;3.08;;;17.40;99.90;;;17.65;100.00;101101.69;5055477;28;20043;-80
2023/10/03 08:12:11;;;;;;;8.90;3.30;;;17.30;99.90;;;17.40;100.00;101116.66;5055240;28;20033;-83
2023/10/03 08:14:40;;;;;;;8.65;3.60;;;17.10;99.90;;;17.46;100.00;101137.91;5055152;28;20048;-86
2023/10/03 08:17:11;;;;;;;4.13;2.75;;;17.10;99.90;;;17.32;100.00;101145.41;5055428;28;20095;-83
2023/10/03 08:19:45;;;;;;;5.13;2.80;;;17.00;99.90;;;17.29;100.00;101143.69;5055309;28;20052;-83
2023/10/03 08:22:15;;;;;;;6.60;2.80;;;17.00;99.90;;;17.47;100.00;101136.97;5055027;28;20045;-82
2023/10/03 08:24:44;;;;;;;4.73;2.70;;;17.10;99.90;;;17.53;100.00;101151.09;5054940;28;20044;-83
2023/10/03 08:27:19;;;;;;;4.80;2.80;;;17.20;99.90;;;17.62;100.00;101148.13;5054960;28;20479;-82
2023/10/03 08:29:53;;;;;;;8.15;3.00;;;17.30;99.90;;;17.70;100.00;101155.94;5054557;28;20049;-82
2023/10/03 08:32:25;;;;;;;7.10;3.28;;;17.30;99.90;;;17.82;100.00;101163.63;5054615;28;20048;-82
2023/10/03 08:34:53;;;;;;;10.63;3.17;;;17.50;99.90;;;17.72;100.00;101170.16;5053439;28;20053;-83
2023/10/03 08:37:22;;;;;;;12.98;3.95;;;17.50;99.90;;;17.71;100.00;101185.31;5054594;28;20079;-82
2023/10/03 08:39:53;;;;;;;10.20;3.55;;;17.40;99.90;;;17.74;100.00;101171.88;5054493;28;20427;-83
2023/10/03 08:42:34;;;;;;;;;;;17.40;99.90;;;17.57;100.00;101167.91;5055246;28;20049;-82
2023/10/03 08:45:16;;;;;;;;;;;17.30;99.90;;;17.66;100.00;101175.66;5054904;28;20013;-82
2023/10/03 08:47:48;;;;;;;9.38;3.35;;;17.30;99.90;;;17.67;100.00;101182.78;5054378;28;19990;-84
2023/10/03 08:50:33;;;;;;;9.68;3.50;;;17.30;99.90;;;17.68;100.00;101203.25;5054416;28;20052;-82
2023/10/03 08:53:15;;;;;;;12.85;3.78;;;17.30;99.90;;;17.62;100.00;101204.31;5054380;28;20052;-83
2023/10/03 08:55:47;;;;;;;9.93;3.05;;;17.30;99.90;;;17.85;100.00;101211.69;5052836;28;20057;-81
2023/10/03 08:58:18;;;;;;;10.05;3.40;;;17.50;99.90;;;17.01;100.00;101089.25;5053961;28;20045;-83
2023/10/03 09:00:49;;;;;;;9.95;3.63;;;17.50;99.90;;;17.46;100.00;101235.03;5054098;28;20045;-84
2023/10/03 09:03:19;;;;;;;10.27;3.92;;;17.20;99.90;;;17.29;100.00;101239.97;5053468;28;20091;-83
2023/10/03 09:05:49;;;;;;;7.88;3.45;;;17.10;99.90;;;17.39;100.00;101253.97;5053756;28;20060;-83
2023/10/03 09:08:18;;;;;;;9.90;3.60;;;17.10;99.90;;;17.42;100.00;101257.44;5054178;28;20410;-83
2023/10/03 09:10:55;;;;;;;6.68;3.00;;;17.10;99.90;;;17.07;100.00;101252.13;5054010;28;20049;-83
2023/10/03 09:13:27;;;;;;;6.65;3.30;;;16.80;99.90;;;16.89;100.00;101265.94;5054055;28;20037;-83
2023/10/03 09:16:02;;;;;;;8.45;3.15;;;16.70;99.90;;;17.03;100.00;101269.16;5054536;28;20052;-82
2023/10/03 09:18:40;;;;;;;9.38;3.08;;;16.70;99.90;;;17.02;100.00;101276.28;5054545;28;20049;-82
2023/10/03 09:21:14;;;;;;;10.48;3.60;;;16.70;99.90;;;17.08;100.00;101280.59;5055694;28;20052;-82
2023/10/03 09:24:01;;;;;;;6.78;3.17;;;16.70;99.90;;;17.08;100.00;101278.81;5056654;28;20481;-83
2023/10/03 09:26:45;;;;;;;7.60;3.60;;;16.70;99.90;;;17.01;100.00;101273.66;5055353;28;20402;-82
2023/10/03 09:29:19;;;;;;;8.30;3.65;;;16.80;99.90;;;17.25;100.00;101290.91;5054888;28;20080;-81
2023/10/03 09:31:49;;;;;;;7.47;3.53;;;16.90;99.90;;;17.26;100.00;101306.00;5054658;28;20049;-83
2023/10/03 09:34:18;;;;;;;10.73;3.97;;;16.90;99.90;;;17.27;100.00;101314.00;5054736;28;20041;-82
2023/10/03 09:36:48;;;;;;;6.63;3.58;;;16.90;99.90;;;17.30;100.00;101311.25;5054968;28;20460;-81
2023/10/03 09:39:22;;;;;;;11.50;3.90;;;17.00;99.90;;;17.21;100.00;101308.78;5054300;28;20594;-82
2023/10/03 09:41:55;;;;;;;11.18;4.60;;;16.90;99.90;;;16.58;100.00;101215.03;5052759;28;20494;-83
2023/10/03 09:44:30;;;;;;;10.40;4.15;;;16.90;99.90;;;17.17;100.00;101329.38;5053529;28;20049;-82
2023/10/03 09:47:03;;;;;;;15.70;5.15;;;16.90;99.90;;;17.15;100.00;101331.22;5053883;28;20076;-81
2023/10/03 09:49:38;;;;;;;15.93;5.20;;;16.80;99.90;;;17.36;100.00;101323.59;5053717;28;20052;-80
2023/10/03 09:52:17;;;;;;;11.57;4.60;;;17.00;99.90;;;17.28;100.00;101328.25;5053620;28;20053;-82
2023/10/03 09:54:46;;;;;;;14.35;5.18;;;16.90;99.90;;;17.49;100.00;101322.41;5053666;28;20064;-82
2023/10/03 09:57:18;;;;;;;16.35;5.10;;;17.10;99.90;;;17.47;100.00;101332.22;5054828;28;20482;-81
2023/10/03 09:59:48;;;;;;;16.80;5.57;;;17.20;99.90;;;17.40;100.00;101330.63;5051564;28;20060;-81
2023/10/03 10:02:30;;;;;;;21.23;5.65;;;17.10;99.90;;;17.26;100.00;101335.44;5053248;28;20087;-81
2023/10/03 10:05:03;;;;;;;16.25;5.57;;;17.00;99.90;;;17.34;100.00;101336.13;5053800;28;20352;-79
2023/10/03 10:07:36;;;;;;;15.68;5.30;;;17.00;99.90;;;17.38;100.00;101337.81;5052901;28;20045;-82
2023/10/03 10:10:13;;;;;;;11.25;5.15;;;17.10;99.90;;;17.26;100.00;101333.63;5052514;28;20055;-80
2023/10/03 10:13:12;;;;;;;12.63;5.72;;;17.00;99.90;;;17.36;100.00;101331.63;5036913;28;20037;-82
2023/10/03 10:16:11;;;;;;;19.42;6.65;;;17.10;99.90;;;17.68;100.00;101345.97;5052611;28;20044;-81
2023/10/03 10:19:00;;;;;;;15.55;5.40;;;17.30;99.90;;;17.49;100.00;101351.81;5037960;28;20048;-80